createdAt,value
2022-11-28T00:01:42.978Z,3.10
2022-11-28T00:04:11.848Z,3.06
2022-11-28T00:06:45.264Z,3.02
2022-11-28T00:09:14.442Z,3.01
2022-11-28T00:11:44.414Z,2.98
2022-11-28T00:14:12.784Z,2.95
2022-11-28T00:16:40.705Z,2.94
2022-11-28T00:19:09.270Z,2.93
2022-11-28T00:21:36.976Z,2.91
2022-11-28T00:24:04.937Z,2.90
2022-11-28T00:26:36.199Z,2.90
2022-11-28T00:29:06.226Z,2.88
2022-11-28T00:31:42.038Z,2.87
2022-11-28T00:34:12.511Z,2.85
2022-11-28T00:36:40.621Z,2.82
2022-11-28T00:39:08.356Z,2.76
2022-11-28T00:41:36.113Z,2.70
2022-11-28T00:44:04.323Z,2.69
2022-11-28T00:46:32.017Z,2.71
2022-11-28T00:49:00.134Z,2.76
2022-11-28T00:51:30.885Z,2.83
2022-11-28T00:54:01.033Z,2.88
2022-11-28T00:56:32.416Z,2.90
2022-11-28T00:59:00.656Z,2.92
2022-11-28T01:01:33.616Z,2.91
2022-11-28T01:04:03.768Z,2.97
2022-11-28T01:06:35.370Z,2.98
2022-11-28T01:09:07.278Z,3.02
2022-11-28T01:11:35.627Z,3.08
2022-11-28T01:14:03.802Z,3.14
2022-11-28T01:16:31.767Z,3.17
2022-11-28T01:18:59.629Z,3.20
2022-11-28T01:21:27.948Z,3.20
2022-11-28T01:23:55.952Z,3.18
2022-11-28T01:26:27.184Z,3.16
2022-11-28T01:28:55.929Z,3.12
2022-11-28T01:31:26.964Z,3.10
2022-11-28T01:33:58.802Z,3.08
2022-11-28T01:36:27.281Z,3.06
2022-11-28T01:38:55.387Z,3.00
2022-11-28T01:41:27.602Z,2.94
2022-11-28T01:44:31.722Z,2.86
2022-11-28T01:46:59.502Z,2.79
2022-11-28T01:49:34.737Z,2.74
2022-11-28T01:52:08.178Z,2.70
2022-11-28T01:54:37.689Z,2.69
2022-11-28T01:57:09.522Z,2.69
2022-11-28T01:59:41.819Z,2.69
2022-11-28T02:02:18.164Z,2.70
2022-11-28T02:04:46.812Z,2.71
2022-11-28T02:07:14.940Z,2.71
2022-11-28T02:09:42.780Z,2.70
2022-11-28T02:12:27.976Z,2.68
2022-11-28T02:15:11.888Z,2.68
2022-11-28T02:18:01.512Z,2.68
2022-11-28T02:21:04.023Z,2.72
2022-11-28T02:23:54.141Z,2.77
2022-11-28T02:26:54.412Z,2.80
2022-11-28T02:29:48.719Z,2.82
2022-11-28T02:32:26.631Z,2.84
2022-11-28T02:35:04.485Z,2.89
2022-11-28T02:37:46.861Z,2.91
2022-11-28T02:40:25.047Z,2.97
2022-11-28T02:43:08.319Z,3.06
2022-11-28T02:45:46.934Z,3.11
2022-11-28T02:48:31.689Z,3.12
2022-11-28T02:51:08.948Z,3.15
2022-11-28T02:53:37.804Z,3.14
2022-11-28T02:56:05.972Z,3.09
2022-11-28T02:58:33.657Z,3.02
2022-11-28T03:01:01.599Z,2.96
2022-11-28T03:03:55.927Z,2.91
2022-11-28T03:06:37.597Z,2.83
2022-11-28T03:09:34.375Z,2.76
2022-11-28T03:12:37.161Z,2.69
2022-11-28T03:15:07.708Z,2.66
2022-11-28T03:17:54.810Z,2.61
2022-11-28T03:20:31.569Z,2.48
2022-11-28T03:23:17.807Z,2.35
2022-11-28T03:25:57.677Z,2.24
2022-11-28T03:28:38.108Z,2.21
2022-11-28T03:31:13.920Z,2.18
2022-11-28T03:33:49.014Z,2.17
2022-11-28T03:36:22.157Z,2.13
2022-11-28T03:38:56.748Z,2.08
2022-11-28T03:41:34.368Z,2.07
2022-11-28T03:44:05.301Z,2.05
2022-11-28T03:46:41.651Z,2.06
2022-11-28T03:49:11.763Z,2.10
2022-11-28T03:51:46.762Z,2.14
2022-11-28T03:54:23.090Z,2.16
2022-11-28T03:57:04.746Z,2.22
2022-11-28T03:59:51.073Z,2.31
2022-11-28T04:02:41.566Z,2.39
2022-11-28T04:05:34.466Z,2.44
2022-11-28T04:08:21.835Z,2.49
2022-11-28T04:11:02.113Z,2.55
2022-11-28T04:13:39.960Z,2.59
2022-11-28T04:16:19.127Z,2.63
2022-11-28T04:19:02.005Z,2.66
2022-11-28T04:21:35.876Z,2.66
2022-11-28T04:24:09.583Z,2.66
2022-11-28T04:26:45.433Z,2.64
2022-11-28T04:29:17.277Z,2.62
2022-11-28T04:31:46.484Z,2.60
2022-11-28T04:34:18.143Z,2.57
2022-11-28T04:36:48.074Z,2.56
2022-11-28T04:39:20.027Z,2.54
2022-11-28T04:41:53.627Z,2.54
2022-11-28T04:44:29.746Z,2.53
2022-11-28T04:46:58.393Z,2.50
2022-11-28T04:49:28.337Z,2.47
2022-11-28T04:52:08.493Z,2.45
2022-11-28T04:55:05.253Z,2.43
2022-11-28T04:57:37.573Z,2.42
2022-11-28T05:00:09.284Z,2.42
2022-11-28T05:02:39.139Z,2.42
2022-11-28T05:05:11.425Z,2.41
2022-11-28T05:07:39.370Z,2.40
2022-11-28T05:10:07.864Z,2.40
2022-11-28T05:12:35.747Z,2.43
2022-11-28T05:15:04.597Z,2.48
2022-11-28T05:17:32.331Z,2.52
2022-11-28T05:20:00.170Z,2.57
2022-11-28T05:22:28.041Z,2.62
2022-11-28T05:24:55.703Z,2.59
2022-11-28T05:27:23.451Z,2.61
2022-11-28T05:29:53.250Z,2.67
2022-11-28T05:32:21.218Z,2.74
2022-11-28T05:34:49.542Z,2.83
2022-11-28T05:37:17.428Z,2.88
2022-11-28T05:39:45.455Z,2.93
2022-11-28T05:42:13.301Z,2.96
2022-11-28T05:44:41.041Z,2.98
2022-11-28T05:47:08.865Z,3.01
2022-11-28T05:49:36.578Z,3.01
2022-11-28T05:52:04.788Z,2.96
2022-11-28T05:54:32.646Z,2.95
2022-11-28T05:57:00.600Z,2.88
2022-11-28T05:59:28.507Z,2.85
2022-11-28T06:01:56.369Z,2.86
2022-11-28T06:04:24.238Z,2.84
2022-11-28T06:06:52.026Z,2.80
2022-11-28T06:09:24.547Z,2.75
2022-11-28T06:11:53.567Z,2.71
2022-11-28T06:14:21.296Z,2.67
2022-11-28T06:16:49.286Z,2.65
2022-11-28T06:19:17.899Z,2.62
2022-11-28T06:21:45.857Z,2.59
2022-11-28T06:24:13.586Z,2.58
2022-11-28T06:26:41.378Z,2.58
2022-11-28T06:29:09.077Z,2.58
2022-11-28T06:31:37.288Z,2.63
2022-11-28T06:34:05.074Z,2.69
2022-11-28T06:36:33.458Z,2.74
2022-11-28T06:39:01.271Z,2.80
2022-11-28T06:41:29.211Z,2.85
2022-11-28T06:43:57.210Z,2.90
2022-11-28T06:46:25.106Z,2.96
2022-11-28T06:48:55.484Z,3.02
2022-11-28T06:51:23.323Z,3.08
2022-11-28T06:53:51.172Z,3.12
2022-11-28T06:56:20.430Z,3.09
2022-11-28T06:58:55.119Z,3.05
2022-11-28T07:01:24.932Z,3.08
2022-11-28T07:03:54.463Z,3.12
2022-11-28T07:06:24.470Z,3.14
2022-11-28T07:08:53.903Z,3.16
2022-11-28T07:11:24.606Z,3.08
2022-11-28T07:13:54.106Z,3.00
2022-11-28T07:16:35.443Z,2.91
2022-11-28T07:19:05.189Z,2.93
2022-11-28T07:21:37.063Z,2.94
2022-11-28T07:24:06.379Z,2.93
2022-11-28T07:26:38.390Z,2.95
2022-11-28T07:29:07.530Z,2.95
2022-11-28T07:31:40.258Z,2.98
2022-11-28T07:34:10.653Z,3.02
2022-11-28T07:36:47.375Z,3.07
2022-11-28T07:39:18.539Z,3.10
2022-11-28T07:41:51.063Z,3.14
2022-11-28T07:44:34.628Z,3.20
2022-11-28T07:47:03.030Z,3.30
2022-11-28T07:49:48.904Z,3.36
2022-11-28T07:52:21.065Z,3.48
2022-11-28T07:54:50.319Z,3.57
2022-11-28T07:57:19.243Z,3.60
2022-11-28T07:59:47.292Z,3.69
2022-11-28T08:02:15.942Z,3.63
2022-11-28T08:04:49.585Z,3.69
2022-11-28T08:07:20.767Z,3.83
2022-11-28T08:09:48.742Z,3.95
2022-11-28T08:12:17.239Z,4.08
2022-11-28T08:14:45.753Z,4.23
2022-11-28T08:17:13.765Z,4.34
2022-11-28T08:19:42.531Z,4.43
2022-11-28T08:22:12.040Z,4.56
2022-11-28T08:24:44.984Z,4.68
2022-11-28T08:27:14.227Z,4.80
2022-11-28T08:29:42.559Z,4.92
2022-11-28T08:32:11.005Z,5.03
2022-11-28T08:34:40.374Z,5.14
2022-11-28T08:37:08.290Z,5.21
2022-11-28T08:39:36.178Z,5.26
2022-11-28T08:42:04.191Z,5.35
2022-11-28T08:44:32.187Z,5.48
2022-11-28T08:47:00.414Z,5.59
2022-11-28T08:49:28.209Z,5.71
2022-11-28T08:51:55.964Z,5.82
2022-11-28T08:54:23.632Z,5.93
2022-11-28T08:56:51.420Z,6.01
2022-11-28T08:59:19.184Z,6.03
2022-11-28T09:01:47.060Z,6.07
2022-11-28T09:04:15.054Z,6.11
2022-11-28T09:06:42.770Z,6.05
2022-11-28T09:09:10.917Z,6.03
2022-11-28T09:11:39.119Z,6.03
2022-11-28T09:14:07.516Z,6.02
2022-11-28T09:16:37.430Z,6.01
2022-11-28T09:19:09.253Z,6.00
2022-11-28T09:21:37.212Z,6.02
2022-11-28T09:24:05.521Z,6.04
2022-11-28T09:26:35.793Z,6.08
2022-11-28T09:29:03.582Z,6.05
2022-11-28T09:31:31.379Z,5.98
2022-11-28T09:34:03.697Z,6.04
2022-11-28T09:36:51.005Z,6.11
2022-11-28T09:40:12.521Z,6.25
2022-11-28T09:42:51.554Z,6.26
2022-11-28T09:45:24.642Z,6.37
2022-11-28T09:47:58.018Z,6.52
2022-11-28T09:50:30.549Z,6.65
2022-11-28T09:53:09.368Z,6.75
2022-11-28T09:56:09.225Z,6.86
2022-11-28T10:20:57.453Z,8.00
2022-11-28T10:23:49.449Z,8.15
2022-11-28T10:26:36.547Z,8.34
2022-11-28T10:29:49.167Z,8.62
2022-11-28T10:32:50.963Z,8.80
2022-11-28T10:36:15.717Z,9.09
2022-11-28T10:39:32.718Z,9.22
2022-11-28T10:42:22.338Z,9.37
2022-11-28T10:45:48.296Z,9.57
2022-11-28T10:48:40.339Z,9.82
2022-11-28T10:51:24.651Z,10.11
2022-11-28T10:54:19.146Z,10.21
2022-11-28T10:57:10.021Z,10.49
2022-11-28T11:00:01.948Z,10.59
2022-11-28T11:02:40.867Z,10.66
2022-11-28T11:05:16.803Z,10.75
2022-11-28T11:08:00.620Z,10.87
2022-11-28T11:10:58.376Z,11.07
2022-11-28T11:13:55.885Z,11.05
2022-11-28T11:16:24.142Z,11.07
2022-11-28T11:18:55.875Z,10.91
2022-11-28T11:21:26.487Z,10.71
2022-11-28T11:24:15.818Z,10.59
2022-11-28T11:26:48.855Z,10.35
2022-11-28T11:29:35.519Z,10.25
2022-11-28T11:32:06.555Z,10.16
2022-11-28T11:34:42.956Z,10.05
2022-11-28T11:37:44.539Z,9.88
2022-11-28T11:40:25.755Z,9.67
2022-11-28T11:42:57.944Z,9.45
2022-11-28T11:45:38.019Z,9.28
2022-11-28T11:48:05.939Z,9.20
2022-11-28T11:50:33.743Z,9.15
2022-11-28T11:53:11.580Z,9.11
2022-11-28T11:55:52.559Z,8.93
2022-11-28T11:58:29.914Z,8.73
2022-11-28T12:01:37.509Z,8.60
2022-11-28T12:07:35.152Z,8.24
2022-11-28T12:10:57.314Z,8.08
2022-11-28T12:13:47.310Z,8.04
2022-11-28T12:17:00.611Z,8.03
2022-11-28T12:20:33.300Z,7.86
2022-11-28T12:23:36.420Z,7.71
2022-11-28T12:27:39.399Z,7.62
2022-11-28T12:30:24.560Z,7.44
2022-11-28T12:33:23.575Z,7.32
2022-11-28T12:36:13.223Z,7.29
2022-11-28T12:39:00.351Z,7.19
2022-11-28T12:41:52.204Z,7.11
2022-11-28T12:44:36.010Z,7.07
2022-11-28T12:47:36.008Z,7.00
2022-11-28T12:50:26.656Z,6.89
2022-11-28T12:53:17.028Z,6.88
2022-11-28T12:56:03.575Z,6.74
2022-11-28T12:58:43.838Z,6.65
2022-11-28T13:01:37.769Z,6.60
2022-11-28T13:04:57.852Z,6.60
2022-11-28T13:07:40.965Z,6.52
2022-11-28T13:10:47.269Z,6.47
2022-11-28T13:13:23.941Z,6.40
2022-11-28T13:16:08.082Z,6.33
2022-11-28T13:18:48.787Z,6.28
2022-11-28T13:21:37.730Z,6.29
2022-11-28T13:24:18.340Z,6.25
2022-11-28T13:27:00.412Z,6.19
2022-11-28T13:29:48.019Z,6.18
2022-11-28T13:32:35.478Z,6.17
2022-11-28T14:13:48.180Z,5.05
2022-11-28T14:16:39.604Z,4.99
2022-11-28T14:19:18.234Z,4.95
2022-11-28T14:22:00.622Z,4.93
2022-11-28T14:24:49.429Z,4.90
2022-11-28T14:27:29.254Z,4.86
2022-11-28T14:29:58.831Z,4.86
2022-11-28T14:32:35.695Z,4.86
2022-11-28T14:35:06.967Z,4.86
2022-11-28T14:37:48.439Z,4.85
2022-11-28T14:40:52.387Z,4.85
2022-11-28T14:43:30.979Z,4.83
2022-11-28T14:46:22.297Z,4.82
2022-11-28T14:49:15.192Z,4.81
2022-11-28T14:52:37.231Z,4.78
2022-11-28T14:55:18.376Z,4.75
2022-11-28T14:58:03.052Z,4.72
2022-11-28T15:00:47.247Z,4.68
2022-11-28T15:03:55.012Z,4.67
2022-11-28T15:06:32.033Z,4.63
2022-11-28T15:09:12.906Z,4.60
2022-11-28T15:11:58.765Z,4.54
2022-11-28T15:14:28.964Z,4.52
2022-11-28T15:17:02.117Z,4.50
2022-11-28T15:19:38.549Z,4.48
2022-11-28T15:22:06.412Z,4.47
2022-11-28T15:24:37.521Z,4.44
2022-11-28T15:27:26.206Z,4.43
2022-11-28T15:29:57.383Z,4.39
2022-11-28T15:32:27.625Z,4.38
2022-11-28T15:35:00.925Z,4.35
2022-11-28T15:37:32.354Z,4.33
2022-11-28T15:40:04.338Z,4.31
2022-11-28T15:42:35.067Z,4.30
2022-11-28T15:45:11.098Z,4.28
2022-11-28T15:47:40.032Z,4.26
2022-11-28T15:50:18.311Z,4.24
2022-11-28T15:52:58.451Z,4.21
2022-11-28T15:55:30.654Z,4.17
2022-11-28T15:58:20.011Z,4.15
2022-11-28T16:00:56.482Z,4.13
2022-11-28T16:03:28.122Z,4.10
2022-11-28T16:05:58.342Z,4.07
2022-11-28T16:08:34.622Z,4.05
2022-11-28T16:11:05.121Z,4.02
2022-11-28T16:13:33.635Z,4.01
2022-11-28T16:16:04.348Z,3.99
2022-11-28T16:18:32.537Z,3.97
2022-11-28T16:21:01.854Z,3.95
2022-11-28T16:23:35.398Z,3.93
2022-11-28T16:26:08.229Z,3.90
2022-11-28T16:28:38.951Z,3.88
2022-11-28T16:31:23.772Z,3.87
2022-11-28T16:33:52.157Z,3.86
2022-11-28T16:36:24.860Z,3.85
2022-11-28T16:39:04.480Z,3.85
2022-11-28T16:41:33.087Z,3.83
2022-11-28T16:44:05.114Z,3.82
2022-11-28T16:46:38.168Z,3.82
2022-11-28T16:49:33.696Z,3.81
2022-11-28T16:52:40.824Z,3.80
2022-11-28T16:55:40.904Z,3.76
2022-11-28T16:58:15.495Z,3.74
2022-11-28T17:00:59.310Z,3.71
2022-11-28T17:03:44.647Z,3.66
2022-11-28T17:06:17.091Z,3.62
2022-11-28T17:08:44.924Z,3.56
2022-11-28T17:11:15.215Z,3.52
2022-11-28T17:13:43.247Z,3.46
2022-11-28T17:16:24.096Z,3.40
2022-11-28T17:18:52.233Z,3.36
2022-11-28T17:21:33.473Z,3.32
2022-11-28T17:24:01.911Z,3.29
2022-11-28T17:26:29.751Z,3.25
2022-11-28T17:28:59.180Z,3.22
2022-11-28T17:31:26.961Z,3.19
2022-11-28T17:33:54.629Z,3.17
2022-11-28T17:36:22.379Z,3.15
2022-11-28T17:38:50.090Z,3.13
2022-11-28T17:41:18.279Z,3.08
2022-11-28T17:43:45.965Z,3.03
2022-11-28T17:46:14.511Z,2.97
2022-11-28T17:48:42.365Z,2.91
2022-11-28T17:51:10.718Z,2.84
2022-11-28T17:53:38.645Z,2.77
2022-11-28T17:56:06.717Z,2.71
2022-11-28T17:58:34.419Z,2.65
2022-11-28T18:01:02.397Z,2.61
2022-11-28T18:03:30.207Z,2.57
2022-11-28T18:05:58.163Z,2.54
2022-11-28T18:08:26.007Z,2.52
2022-11-28T18:11:06.683Z,2.52
2022-11-28T18:13:34.731Z,2.52
2022-11-28T18:16:03.383Z,2.54
2022-11-28T18:18:32.165Z,2.57
2022-11-28T18:21:01.044Z,2.61
2022-11-28T18:23:29.043Z,2.66
2022-11-28T18:25:57.580Z,2.69
2022-11-28T18:28:25.390Z,2.73
2022-11-28T18:30:53.893Z,2.76
2022-11-28T18:33:21.621Z,2.80
2022-11-28T18:35:49.460Z,2.84
2022-11-28T18:38:17.237Z,2.86
2022-11-28T18:40:45.085Z,2.88
2022-11-28T18:43:12.898Z,2.90
2022-11-28T18:45:41.032Z,2.92
2022-11-28T18:48:08.717Z,2.94
2022-11-28T18:50:36.432Z,2.95
2022-11-28T18:53:04.467Z,2.97
2022-11-28T18:55:32.619Z,2.98
2022-11-28T18:58:00.478Z,3.01
2022-11-28T19:00:28.651Z,3.05
2022-11-28T19:02:56.402Z,3.11
2022-11-28T19:05:24.128Z,3.16
2022-11-28T19:07:52.683Z,3.20
2022-11-28T19:10:20.977Z,3.25
2022-11-28T19:12:48.778Z,3.29
2022-11-28T19:15:17.139Z,3.33
2022-11-28T19:17:45.102Z,3.36
2022-11-28T19:20:14.320Z,3.38
2022-11-28T19:22:42.006Z,3.36
2022-11-28T19:25:09.781Z,3.36
2022-11-28T19:27:37.568Z,3.34
2022-11-28T19:30:06.432Z,3.28
2022-11-28T19:32:36.291Z,3.20
2022-11-28T19:35:04.706Z,3.13
2022-11-28T19:37:32.496Z,3.06
2022-11-28T19:40:02.799Z,2.97
2022-11-28T19:42:32.015Z,2.90
2022-11-28T19:44:59.698Z,2.82
2022-11-28T19:47:28.955Z,2.74
2022-11-28T19:49:57.028Z,2.64
2022-11-28T19:52:25.206Z,2.55
2022-11-28T19:54:52.996Z,2.48
2022-11-28T19:57:20.862Z,2.41
2022-11-28T19:59:51.156Z,2.34
2022-11-28T20:02:21.639Z,2.27
2022-11-28T20:04:49.554Z,2.19
2022-11-28T20:07:17.420Z,2.09
2022-11-28T20:09:45.552Z,2.00
2022-11-28T20:12:15.809Z,1.93
2022-11-28T20:14:43.521Z,1.86
2022-11-28T20:17:12.145Z,1.79
2022-11-28T20:19:39.840Z,1.73
2022-11-28T20:22:07.903Z,1.66
2022-11-28T20:24:35.895Z,1.60
2022-11-28T20:27:03.680Z,1.56
2022-11-28T20:29:31.629Z,1.50
2022-11-28T20:31:59.532Z,1.45
2022-11-28T20:34:27.622Z,1.38
2022-11-28T20:36:55.744Z,1.32
2022-11-28T20:39:24.323Z,1.29
2022-11-28T20:41:52.091Z,1.27
2022-11-28T20:44:20.324Z,1.28
2022-11-28T20:46:49.836Z,1.30
2022-11-28T20:49:18.354Z,1.33
2022-11-28T20:51:46.164Z,1.35
2022-11-28T20:54:14.358Z,1.37
2022-11-28T20:57:19.250Z,1.38
2022-11-28T20:59:32.238Z,1.36
2022-11-28T21:02:00.007Z,1.36
2022-11-28T21:04:27.744Z,1.35
2022-11-28T21:06:55.917Z,1.33
2022-11-28T21:09:23.783Z,1.29
2022-11-28T21:11:57.592Z,1.23
2022-11-28T21:14:27.456Z,1.17
2022-11-28T21:16:56.185Z,1.08
2022-11-28T21:19:24.000Z,1.00
2022-11-28T21:21:51.846Z,0.92
2022-11-28T21:24:19.978Z,0.83
2022-11-28T21:26:52.963Z,0.74
2022-11-28T21:29:22.921Z,0.65
2022-11-28T21:31:50.895Z,0.55
2022-11-28T21:34:19.222Z,0.48
2022-11-28T21:36:47.390Z,0.40
2022-11-28T21:39:19.808Z,0.34
2022-11-28T21:41:48.032Z,0.27
2022-11-28T21:44:15.869Z,0.20
2022-11-28T21:46:43.582Z,0.13
2022-11-28T21:49:12.686Z,0.07
2022-11-28T21:51:40.749Z,0.01
2022-11-28T21:54:11.083Z,-0.05
2022-11-28T21:56:39.085Z,-0.11
2022-11-28T21:59:06.884Z,-0.17
2022-11-28T22:01:35.120Z,-0.23
2022-11-28T22:04:04.650Z,-0.29
2022-11-28T22:06:32.941Z,-0.34
2022-11-28T22:09:08.791Z,-0.36
2022-11-28T22:11:38.829Z,-0.36
2022-11-28T22:14:06.828Z,-0.36
2022-11-28T22:16:35.301Z,-0.33
2022-11-28T22:19:04.233Z,-0.30
2022-11-28T22:24:21.306Z,-0.20
2022-11-28T22:26:50.184Z,-0.17
2022-11-28T22:29:19.161Z,-0.13
2022-11-28T22:31:47.047Z,-0.09
2022-11-28T22:34:15.267Z,-0.06
2022-11-28T22:36:43.170Z,-0.04
2022-11-28T22:39:11.706Z,-0.03
2022-11-28T22:41:39.957Z,-0.03
2022-11-28T22:44:11.558Z,-0.07
2022-11-28T22:46:39.862Z,-0.12
2022-11-28T22:49:10.541Z,-0.16
2022-11-28T22:51:39.212Z,-0.24
2022-11-28T22:54:07.483Z,-0.30
2022-11-28T22:56:35.279Z,-0.38
2022-11-28T22:59:05.075Z,-0.45
2022-11-28T23:01:35.279Z,-0.49
2022-11-28T23:04:03.319Z,-0.54
2022-11-28T23:06:34.314Z,-0.59
2022-11-28T23:09:06.464Z,-0.65
2022-11-28T23:11:36.955Z,-0.71
2022-11-28T23:14:06.434Z,-0.77
2022-11-28T23:16:37.612Z,-0.84
2022-11-28T23:19:13.671Z,-0.89
2022-11-28T23:21:43.652Z,-0.94
2022-11-28T23:24:14.604Z,-0.98
2022-11-28T23:26:43.846Z,-1.02
2022-11-28T23:29:13.942Z,-1.05
2022-11-28T23:31:44.303Z,-1.08
2022-11-28T23:34:12.433Z,-1.10
2022-11-28T23:36:43.102Z,-1.10
2022-11-28T23:39:15.710Z,-1.10
2022-11-28T23:41:43.952Z,-1.10
2022-11-28T23:44:13.407Z,-1.08
2022-11-28T23:46:41.988Z,-1.06
2022-11-28T23:49:10.649Z,-1.03
2022-11-28T23:51:40.495Z,-0.97
2022-11-28T23:54:10.198Z,-0.92
2022-11-28T23:56:40.242Z,-0.86
2022-11-28T23:59:10.507Z,-0.79
